Time;durP1;ratioP1;P1;durP2;ratioP2;P2;SDS_P1;SDS_P2;PMS_P1;PMS_P2;Temp;Humidity;BMP_temperature;BMP_pressure;BME280_temperature;BME280_humidity;BME280_pressure;Samples;Min_cycle;Max_cycle;Signal;HPM_P1;HPM_P2
2022/01/15 00:02:15;;;;;;;9.03;2.70;;;9.20;50.20;;;;;;5076425;28;20200;-51
2022/01/15 00:04:41;;;;;;;6.22;2.63;;;9.20;50.20;;;;;;5076424;28;20761;-51
2022/01/15 00:07:07;;;;;;;3.90;2.17;;;9.20;50.40;;;;;;5076406;28;20168;-51
2022/01/15 00:09:32;;;;;;;8.77;3.90;;;9.20;50.30;;;;;;5076394;28;20161;-51
2022/01/15 00:11:58;;;;;;;4.50;2.63;;;9.20;50.30;;;;;;5076436;28;20167;-50
2022/01/15 00:14:36;;;;;;;4.50;2.33;;;9.20;50.20;;;;;;5076153;28;20164;-50
2022/01/15 00:17:07;;;;;;;4.13;2.58;;;9.20;50.30;;;;;;5076357;28;20670;-50
2022/01/15 00:19:42;;;;;;;6.60;2.75;;;9.20;50.50;;;;;;5076171;28;20225;-51
2022/01/15 00:22:13;;;;;;;6.32;3.72;;;9.10;50.60;;;;;;5074897;28;20167;-51
2022/01/15 00:24:39;;;;;;;4.05;2.25;;;9.10;50.80;;;;;;5076120;28;20168;-51
2022/01/15 00:27:06;;;;;;;11.10;3.38;;;9.10;51.00;;;;;;5076078;28;20176;-51
2022/01/15 00:29:32;;;;;;;5.63;2.72;;;9.00;50.80;;;;;;5076152;28;20706;-51
2022/01/15 00:31:59;;;;;;;6.20;2.67;;;9.10;51.10;;;;;;5076100;28;20262;-51
2022/01/15 00:34:25;;;;;;;3.58;1.98;;;9.10;51.00;;;;;;5074692;28;20528;-51
2022/01/15 00:36:51;;;;;;;8.20;3.50;;;9.00;50.90;;;;;;5075865;28;20170;-51
2022/01/15 00:39:17;;;;;;;9.17;4.47;;;9.00;51.30;;;;;;5075860;28;20251;-50
2022/01/15 00:41:42;;;;;;;12.03;4.50;;;9.00;51.40;;;;;;5075822;28;20168;-51
2022/01/15 00:44:08;;;;;;;5.97;2.67;;;8.90;51.80;;;;;;5075737;28;20188;-50
2022/01/15 00:46:34;;;;;;;8.77;3.87;;;8.90;51.70;;;;;;5075980;28;20210;-50
2022/01/15 00:49:00;;;;;;;9.37;2.57;;;9.00;51.50;;;;;;5075796;28;20779;-50
2022/01/15 00:51:25;;;;;;;7.80;3.97;;;9.00;51.30;;;;;;5075668;28;20160;-50
2022/01/15 00:53:51;;;;;;;4.67;2.40;;;9.00;51.30;;;;;;5076051;28;20243;-50
2022/01/15 00:56:17;;;;;;;12.13;4.10;;;9.00;51.40;;;;;;5074408;28;20623;-50
2022/01/15 00:58:43;;;;;;;5.73;3.27;;;9.00;51.30;;;;;;5075561;28;20675;-50
2022/01/15 01:01:08;;;;;;;9.17;2.67;;;9.00;51.30;;;;;;5075507;28;20406;-51
2022/01/15 01:03:34;;;;;;;4.93;3.43;;;9.00;51.20;;;;;;5075637;28;20203;-51
2022/01/15 01:06:00;;;;;;;5.93;3.50;;;9.00;51.10;;;;;;5075434;28;20177;-51
2022/01/15 01:08:25;;;;;;;5.70;2.40;;;9.00;51.30;;;;;;5074055;28;20589;-50
2022/01/15 01:10:57;;;;;;;9.13;2.30;;;9.00;51.30;;;;;;5075344;28;20174;-50
2022/01/15 01:13:42;;;;;;;14.07;3.47;;;8.90;51.60;;;;;;5075165;28;20523;-51
2022/01/15 01:24:26;;;;;;;8.82;3.40;;;9.00;51.50;;;;;;5075053;28;20164;-51
2022/01/15 01:27:03;;;;;;;3.70;2.50;;;8.90;51.50;;;;;;5074179;28;20762;-50
2022/01/15 01:30:17;;;;;;;6.57;5.55;;;9.00;51.30;;;;;;5075052;28;20249;-50
2022/01/15 01:35:10;;;;;;;6.25;4.35;;;9.00;51.30;;;;;;5074883;28;20170;-51
2022/01/15 01:37:40;;;;;;;8.60;3.78;;;9.00;51.10;;;;;;5074699;28;20161;-51
2022/01/15 01:40:20;;;;;;;5.93;1.88;;;8.90;51.30;;;;;;5074961;28;20248;-50
2022/01/15 01:43:42;;;;;;;9.25;4.93;;;8.90;51.90;;;;;;5074456;28;20203;-51
2022/01/15 01:45:33;;;;;;;12.88;2.67;;;9.00;51.30;;;;;;5073969;28;20222;-50
2022/01/15 01:47:58;;;;;;;8.10;3.97;;;9.00;51.00;;;;;;5074316;28;20220;-51
2022/01/15 01:50:26;;;;;;;9.60;3.37;;;9.00;51.30;;;;;;5074443;28;20842;-50
2022/01/15 01:52:55;;;;;;;8.90;3.50;;;9.00;51.00;;;;;;5074434;28;20164;-50
2022/01/15 01:55:23;;;;;;;6.18;2.95;;;9.00;50.90;;;;;;5074315;28;20171;-51
2022/01/15 01:57:50;;;;;;;4.82;2.15;;;9.00;51.00;;;;;;5074324;28;20201;-51
2022/01/15 02:00:18;;;;;;;7.13;2.45;;;9.00;51.10;;;;;;5074292;28;20173;-51
2022/01/15 02:02:45;;;;;;;5.78;2.95;;;9.00;51.00;;;;;;5074328;28;20231;-50
2022/01/15 02:05:11;;;;;;;5.03;2.72;;;9.00;51.00;;;;;;5074183;28;20195;-51
2022/01/15 02:07:38;;;;;;;5.63;2.65;;;9.00;51.00;;;;;;5072574;28;20180;-51
2022/01/15 02:10:08;;;;;;;8.52;2.47;;;9.00;51.00;;;;;;5074028;28;20641;-51
2022/01/15 02:12:33;;;;;;;4.55;2.75;;;9.00;51.10;;;;;;5074271;28;20168;-50
2022/01/15 02:15:09;;;;;;;9.03;3.23;;;9.00;51.00;;;;;;5074040;28;20179;-51
2022/01/15 02:17:35;;;;;;;7.28;2.85;;;9.00;50.90;;;;;;5073944;28;20176;-51
2022/01/15 02:25:50;;;;;;;7.85;3.60;;;8.90;50.90;;;;;;5074026;28;20161;-51
2022/01/15 02:28:24;;;;;;;6.13;3.28;;;8.80;51.10;;;;;;5072589;28;20195;-51
2022/01/15 02:31:08;;;;;;;3.30;2.13;;;8.80;51.10;;;;;;5073914;28;20166;-50
2022/01/15 02:33:34;;;;;;;5.78;2.42;;;8.90;51.00;;;;;;5074047;28;20562;-51
2022/01/15 02:36:03;;;;;;;2.75;1.25;;;8.80;51.00;;;;;;5073724;28;20171;-51
2022/01/15 02:38:28;;;;;;;5.88;2.50;;;8.70;50.90;;;;;;5072438;28;20625;-50
2022/01/15 02:40:54;;;;;;;6.00;2.93;;;8.70;51.20;;;;;;5073666;28;20200;-51
2022/01/15 02:43:28;;;;;;;5.47;2.20;;;8.70;51.30;;;;;;5073584;28;20232;-51
2022/01/15 02:45:55;;;;;;;9.13;2.50;;;8.60;51.20;;;;;;5073734;28;20482;-50
2022/01/15 02:48:26;;;;;;;6.28;2.53;;;8.60;51.40;;;;;;5073574;28;20180;-51
2022/01/15 02:50:53;;;;;;;15.45;3.22;;;8.50;51.60;;;;;;5073610;28;20650;-51
2022/01/15 02:53:19;;;;;;;4.63;1.80;;;8.50;51.40;;;;;;5073538;28;20167;-51
2022/01/15 02:55:50;;;;;;;2.50;1.47;;;8.50;51.40;;;;;;5073700;28;20169;-50
2022/01/15 02:58:18;;;;;;;6.10;2.78;;;8.60;51.20;;;;;;5072217;28;20457;-51
2022/01/15 03:00:45;;;;;;;4.85;2.28;;;8.50;51.20;;;;;;5073443;28;20251;-51
2022/01/15 03:03:11;;;;;;;3.58;2.60;;;8.50;51.20;;;;;;5073382;28;20278;-50
2022/01/15 03:05:36;;;;;;;4.90;1.83;;;8.50;51.20;;;;;;5073470;28;20222;-50
2022/01/15 03:08:05;;;;;;;5.70;2.10;;;8.50;51.20;;;;;;5073390;28;20164;-51
2022/01/15 03:10:31;;;;;;;2.40;1.70;;;8.40;51.10;;;;;;5073479;28;20179;-51
2022/01/15 03:12:58;;;;;;;4.37;2.67;;;8.40;51.10;;;;;;5073429;28;20547;-51
2022/01/15 03:15:25;;;;;;;10.23;2.03;;;8.40;51.20;;;;;;5073242;28;20182;-51
2022/01/15 03:17:51;;;;;;;2.88;1.42;;;8.40;51.10;;;;;;5072020;28;20179;-51
2022/01/15 03:20:19;;;;;;;4.10;1.83;;;8.40;51.30;;;;;;5077194;28;20250;-50
2022/01/15 03:22:46;;;;;;;3.95;1.90;;;8.30;51.30;;;;;;5077344;28;20290;-50
2022/01/15 03:25:13;;;;;;;3.17;1.70;;;8.30;51.30;;;;;;5077312;28;20254;-50
2022/01/15 03:27:39;;;;;;;2.92;1.88;;;8.30;51.40;;;;;;5077434;28;20532;-51
2022/01/15 03:30:07;;;;;;;4.05;2.58;;;8.40;51.20;;;;;;5077221;28;20188;-51
2022/01/15 03:32:33;;;;;;;3.38;2.13;;;8.50;51.00;;;;;;5077127;28;20172;-51
2022/01/15 03:34:59;;;;;;;2.70;1.77;;;8.60;50.70;;;;;;5077073;28;20176;-51
2022/01/15 03:37:25;;;;;;;4.97;2.17;;;8.60;50.50;;;;;;5075746;28;20414;-51
2022/01/15 03:39:51;;;;;;;13.40;2.70;;;8.60;50.40;;;;;;5076997;28;20709;-51
2022/01/15 03:42:17;;;;;;;5.60;1.80;;;8.60;50.30;;;;;;5075530;28;20452;-51
2022/01/15 03:44:45;;;;;;;7.78;2.78;;;8.70;50.20;;;;;;5077179;28;20174;-51
2022/01/15 03:47:12;;;;;;;6.47;2.47;;;8.70;50.10;;;;;;5076592;28;20180;-51
2022/01/15 03:49:39;;;;;;;3.78;2.00;;;8.70;50.00;;;;;;5076377;28;20604;-51
2022/01/15 03:52:06;;;;;;;7.35;2.63;;;8.70;49.90;;;;;;5076742;28;20171;-51
2022/01/15 03:54:33;;;;;;;3.05;1.80;;;8.80;49.80;;;;;;5076702;28;20169;-50
2022/01/15 03:56:59;;;;;;;4.05;2.05;;;8.70;49.80;;;;;;5076660;28;20180;-51
2022/01/15 03:59:25;;;;;;;4.13;2.45;;;8.70;49.80;;;;;;5076655;28;20167;-51
2022/01/15 04:01:51;;;;;;;7.70;2.13;;;8.70;49.70;;;;;;5076575;28;20725;-51
2022/01/15 04:04:17;;;;;;;3.40;1.45;;;8.70;49.80;;;;;;5076456;28;20223;-51
2022/01/15 04:06:43;;;;;;;4.38;2.00;;;8.70;49.60;;;;;;5076561;28;20177;-51
2022/01/15 04:09:09;;;;;;;4.37;1.93;;;8.70;49.60;;;;;;5075212;28;20166;-51
2022/01/15 04:11:35;;;;;;;8.32;2.85;;;8.70;49.50;;;;;;5076462;28;20217;-51
2022/01/15 04:14:02;;;;;;;7.00;2.67;;;8.70;49.50;;;;;;5076327;28;20252;-51
2022/01/15 04:16:29;;;;;;;4.18;2.00;;;8.80;49.40;;;;;;5076360;28;20174;-51
2022/01/15 04:18:58;;;;;;;1.80;1.33;;;8.70;49.30;;;;;;5076003;28;20173;-51
2022/01/15 04:21:24;;;;;;;5.25;1.50;;;8.60;49.10;;;;;;5076302;28;20228;-50
2022/01/15 04:23:51;;;;;;;2.15;1.67;;;8.60;49.10;;;;;;5076144;28;20215;-51
2022/01/15 04:26:18;;;;;;;1.60;1.05;;;8.50;49.90;;;;;;5076132;28;20164;-51
2022/01/15 04:28:44;;;;;;;1.55;1.10;;;8.50;49.10;;;;;;5076113;28;20174;-51
2022/01/15 04:31:10;;;;;;;2.50;1.50;;;8.50;49.00;;;;;;5075922;28;20172;-51
2022/01/15 04:33:38;;;;;;;2.27;1.20;;;8.40;49.00;;;;;;5076091;28;20178;-51
2022/01/15 04:36:05;;;;;;;4.72;1.60;;;8.40;48.80;;;;;;5076002;28;20161;-50
2022/01/15 04:38:35;;;;;;;3.35;1.85;;;8.40;48.60;;;;;;5075952;28;20177;-51
2022/01/15 04:41:01;;;;;;;6.03;1.88;;;8.40;48.70;;;;;;5075853;28;20172;-51
2022/01/15 04:43:27;;;;;;;2.50;1.83;;;8.40;48.70;;;;;;5075893;28;20715;-51
2022/01/15 04:45:52;;;;;;;2.80;1.40;;;8.40;48.60;;;;;;5074502;28;20434;-51
2022/01/15 04:48:18;;;;;;;3.00;1.83;;;8.40;48.60;;;;;;5075848;28;20916;-51
2022/01/15 04:50:44;;;;;;;3.67;2.40;;;8.40;48.50;;;;;;5075733;28;20175;-51
2022/01/15 04:53:10;;;;;;;2.70;1.40;;;8.40;48.30;;;;;;5075656;28;20917;-50
2022/01/15 04:55:37;;;;;;;4.33;2.43;;;8.40;48.20;;;;;;5075574;28;20168;-51
2022/01/15 04:58:04;;;;;;;2.50;1.30;;;8.40;48.30;;;;;;5075568;28;20160;-51
2022/01/15 05:00:30;;;;;;;3.00;1.90;;;8.40;48.30;;;;;;5074262;28;20270;-51
2022/01/15 05:02:57;;;;;;;2.60;1.53;;;8.40;48.30;;;;;;5075350;28;20279;-51
2022/01/15 05:05:24;;;;;;;3.17;1.35;;;8.40;48.20;;;;;;5075575;28;20418;-51
2022/01/15 05:07:52;;;;;;;22.05;1.55;;;8.40;48.20;;;;;;5075424;28;20639;-51
2022/01/15 05:10:23;;;;;;;4.53;1.40;;;8.40;48.10;;;;;;5075245;28;20663;-51
2022/01/15 05:12:50;;;;;;;1.33;0.73;;;8.40;48.10;;;;;;5075644;28;20171;-51
2022/01/15 05:15:17;;;;;;;2.55;0.80;;;8.40;47.90;;;;;;5072929;28;20616;-50
2022/01/15 05:17:43;;;;;;;3.95;2.10;;;8.40;48.00;;;;;;5075158;28;20241;-51
2022/01/15 05:20:10;;;;;;;2.53;1.83;;;8.30;47.80;;;;;;5073757;28;20219;-51
2022/01/15 05:22:36;;;;;;;2.40;1.00;;;8.30;47.70;;;;;;5075211;28;20205;-50
2022/01/15 05:25:04;;;;;;;3.67;1.97;;;8.20;47.60;;;;;;5075119;28;20254;-51
2022/01/15 05:27:30;;;;;;;1.55;0.73;;;8.20;47.70;;;;;;5073603;28;20946;-51
2022/01/15 05:29:56;;;;;;;3.50;1.57;;;8.20;47.70;;;;;;5073597;28;20177;-51
2022/01/15 05:32:23;;;;;;;4.20;1.30;;;8.10;47.70;;;;;;5074902;28;20461;-51
2022/01/15 05:34:49;;;;;;;1.80;0.52;;;8.10;47.90;;;;;;5074914;28;20171;-51
2022/01/15 05:37:16;;;;;;;4.93;2.28;;;8.10;47.80;;;;;;5074790;28;20180;-51
2022/01/15 05:39:41;;;;;;;6.10;1.10;;;8.10;47.80;;;;;;5074718;28;20222;-51
2022/01/15 05:42:08;;;;;;;3.37;1.30;;;8.10;47.60;;;;;;5074149;28;20249;-51
2022/01/15 05:44:34;;;;;;;2.58;1.55;;;8.10;47.60;;;;;;5074584;28;20524;-51
2022/01/15 05:47:01;;;;;;;3.25;2.38;;;8.00;47.50;;;;;;5074851;28;20184;-51
2022/01/15 05:49:26;;;;;;;2.35;1.77;;;8.00;47.60;;;;;;5074528;28;20519;-50
2022/01/15 05:51:52;;;;;;;7.33;2.40;;;8.00;47.60;;;;;;5074659;28;20175;-51
2022/01/15 05:54:18;;;;;;;1.70;1.00;;;8.00;47.70;;;;;;5074347;28;20190;-51
2022/01/15 05:56:43;;;;;;;4.70;1.30;;;8.00;47.90;;;;;;5074376;28;20165;-51
2022/01/15 05:59:09;;;;;;;2.77;1.90;;;8.00;47.90;;;;;;5074424;28;20168;-51
2022/01/15 06:01:37;;;;;;;2.47;1.47;;;8.00;48.00;;;;;;5074290;28;20172;-51
2022/01/15 06:04:03;;;;;;;11.27;3.10;;;8.00;48.00;;;;;;5074096;28;20453;-50
2022/01/15 06:06:29;;;;;;;2.90;1.92;;;8.00;48.00;;;;;;5074230;28;20168;-51
2022/01/15 06:08:55;;;;;;;2.70;1.30;;;8.00;48.00;;;;;;5072880;28;20696;-51
2022/01/15 06:11:23;;;;;;;3.97;1.87;;;8.00;47.90;;;;;;5073979;28;20260;-51
2022/01/15 06:13:49;;;;;;;8.73;1.25;;;8.00;47.90;;;;;;5074068;28;20960;-51
2022/01/15 06:16:18;;;;;;;6.57;2.42;;;8.00;47.70;;;;;;5071989;28;20172;-51
2022/01/15 06:18:44;;;;;;;3.15;1.08;;;8.00;47.60;;;;;;5073853;28;20638;-51
2022/01/15 06:21:10;;;;;;;5.60;2.30;;;7.90;47.50;;;;;;5073962;28;20173;-51
2022/01/15 06:23:36;;;;;;;3.37;1.77;;;7.90;47.60;;;;;;5073883;28;20544;-51
2022/01/15 06:26:01;;;;;;;7.73;2.07;;;7.90;47.50;;;;;;5073978;28;20478;-51
2022/01/15 06:28:27;;;;;;;2.50;1.37;;;7.80;47.30;;;;;;5073893;28;20513;-51
2022/01/15 06:30:53;;;;;;;2.70;1.30;;;7.80;47.30;;;;;;5074048;28;20177;-51
2022/01/15 06:33:19;;;;;;;1.73;1.03;;;7.80;47.30;;;;;;5072527;28;20168;-51
2022/01/15 06:35:45;;;;;;;2.90;1.70;;;7.80;47.30;;;;;;5073775;28;20509;-51
2022/01/15 06:38:11;;;;;;;6.68;1.60;;;7.70;47.30;;;;;;5073729;28;20403;-51
2022/01/15 06:40:36;;;;;;;4.63;2.50;;;7.70;47.30;;;;;;5073696;28;20186;-51
2022/01/15 06:43:04;;;;;;;4.00;2.10;;;7.60;47.30;;;;;;5073675;28;20201;-51
2022/01/15 06:45:30;;;;;;;1.95;1.10;;;7.50;47.40;;;;;;5073596;28;20612;-50
2022/01/15 06:47:56;;;;;;;1.88;1.35;;;7.50;47.50;;;;;;5073568;28;20240;-51
2022/01/15 06:50:24;;;;;;;4.05;1.80;;;7.50;47.50;;;;;;5073600;28;20169;-51
2022/01/15 06:52:50;;;;;;;8.13;1.60;;;7.50;47.40;;;;;;5072900;28;20533;-51
2022/01/15 06:55:16;;;;;;;2.95;1.75;;;7.40;47.30;;;;;;5073671;28;20238;-51
2022/01/15 06:57:42;;;;;;;4.80;1.75;;;7.40;47.30;;;;;;5073372;28;20540;-51
2022/01/15 07:00:10;;;;;;;2.77;1.80;;;7.40;47.40;;;;;;5073596;28;20167;-51
2022/01/15 07:02:36;;;;;;;2.50;1.20;;;7.40;47.40;;;;;;5072045;28;20454;-51
2022/01/15 07:05:02;;;;;;;6.30;1.73;;;7.40;47.40;;;;;;5073477;28;20704;-51
2022/01/15 07:07:28;;;;;;;3.28;1.77;;;7.40;47.50;;;;;;5073494;28;20210;-51
2022/01/15 07:09:53;;;;;;;3.20;1.80;;;7.40;47.50;;;;;;5072034;28;20172;-51
2022/01/15 07:12:19;;;;;;;2.50;1.37;;;7.40;47.50;;;;;;5073403;28;20161;-51
2022/01/15 07:14:44;;;;;;;2.73;2.13;;;7.30;47.50;;;;;;5073287;28;20176;-51
2022/01/15 07:17:10;;;;;;;2.13;0.80;;;7.30;47.60;;;;;;5072058;28;20195;-51
2022/01/15 07:19:39;;;;;;;4.60;2.33;;;7.30;47.60;;;;;;5071821;28;20569;-50
2022/01/15 07:22:06;;;;;;;2.38;1.38;;;7.30;47.60;;;;;;5073212;28;20161;-51
2022/01/15 07:24:32;;;;;;;6.00;2.42;;;7.30;47.80;;;;;;5073098;28;20195;-51
2022/01/15 07:26:58;;;;;;;4.40;1.73;;;7.30;48.00;;;;;;5071969;28;20174;-51
2022/01/15 07:29:24;;;;;;;6.40;2.10;;;7.30;48.10;;;;;;5073210;28;20416;-51
2022/01/15 07:31:52;;;;;;;5.15;1.85;;;7.30;48.20;;;;;;5073404;28;20186;-51
2022/01/15 07:34:18;;;;;;;14.32;5.38;;;7.30;48.20;;;;;;5073207;28;20171;-51
2022/01/15 07:36:50;;;;;;;4.88;2.53;;;7.30;48.30;;;;;;5073091;28;20252;-51
2022/01/15 07:39:16;;;;;;;3.28;2.08;;;7.40;48.20;;;;;;5073083;28;20203;-51
2022/01/15 07:41:42;;;;;;;9.70;3.20;;;7.40;48.20;;;;;;5073091;28;20169;-51
2022/01/15 07:44:09;;;;;;;7.53;3.38;;;7.50;48.20;;;;;;5072977;28;20523;-51
2022/01/15 07:46:35;;;;;;;3.83;1.70;;;7.50;48.20;;;;;;5072945;28;20173;-51
2022/01/15 07:49:01;;;;;;;8.23;3.10;;;7.60;48.30;;;;;;5072950;28;20659;-51
2022/01/15 07:51:26;;;;;;;3.20;1.93;;;7.60;48.20;;;;;;5073029;28;20456;-51
2022/01/15 07:53:52;;;;;;;3.20;1.70;;;7.60;48.30;;;;;;5072881;28;20192;-50
2022/01/15 07:56:18;;;;;;;4.27;2.00;;;7.70;49.00;;;;;;5071667;28;20246;-51
2022/01/15 07:58:44;;;;;;;8.40;4.10;;;7.70;48.30;;;;;;5072918;28;20506;-51
2022/01/15 08:01:09;;;;;;;5.73;2.67;;;7.70;48.40;;;;;;5072918;28;20644;-51
2022/01/15 08:03:35;;;;;;;3.73;2.00;;;7.70;48.40;;;;;;5072839;28;20194;-51
2022/01/15 08:06:01;;;;;;;3.97;1.77;;;7.80;48.40;;;;;;5076270;28;20172;-51
2022/01/15 08:08:26;;;;;;;3.80;1.60;;;7.80;48.40;;;;;;5075171;28;20636;-51
2022/01/15 08:10:52;;;;;;;11.03;3.70;;;7.80;48.40;;;;;;5076353;28;20190;-51
2022/01/15 08:13:19;;;;;;;8.93;3.43;;;7.80;48.40;;;;;;5076438;28;20290;-51
2022/01/15 08:15:45;;;;;;;5.63;2.70;;;7.90;48.70;;;;;;5076548;28;20234;-51
2022/01/15 08:18:10;;;;;;;6.28;2.03;;;7.90;48.50;;;;;;5076399;28;20169;-51
2022/01/15 08:20:36;;;;;;;9.60;4.23;;;7.90;48.70;;;;;;5076076;28;20243;-51
2022/01/15 08:23:02;;;;;;;5.60;2.37;;;7.90;48.80;;;;;;5076173;28;20802;-51
2022/01/15 08:25:28;;;;;;;5.65;2.20;;;7.90;48.80;;;;;;5076204;28;20173;-51
2022/01/15 08:27:54;;;;;;;3.97;1.70;;;8.00;48.70;;;;;;5076104;28;20222;-51
2022/01/15 08:30:21;;;;;;;5.45;2.72;;;8.00;48.60;;;;;;5076289;28;20260;-51
2022/01/15 08:32:47;;;;;;;6.70;3.10;;;8.00;48.60;;;;;;5074713;28;20219;-51
2022/01/15 08:35:13;;;;;;;4.28;2.17;;;8.10;48.60;;;;;;5076061;28;20247;-51
2022/01/15 08:37:41;;;;;;;3.70;1.55;;;8.10;48.60;;;;;;5075807;28;20225;-50
2022/01/15 08:40:09;;;;;;;4.72;1.63;;;8.20;48.70;;;;;;5076082;28;20162;-51
2022/01/15 08:42:36;;;;;;;5.00;2.10;;;8.20;48.50;;;;;;5075929;28;20253;-51
2022/01/15 08:45:04;;;;;;;3.97;1.77;;;8.30;48.60;;;;;;5075770;28;20167;-51
2022/01/15 08:47:30;;;;;;;4.45;2.55;;;8.40;48.30;;;;;;5076005;28;20177;-51
2022/01/15 08:49:56;;;;;;;5.20;2.23;;;8.40;48.40;;;;;;5074384;28;20294;-51
2022/01/15 08:52:22;;;;;;;13.93;2.57;;;8.40;48.40;;;;;;5074602;28;20184;-51
2022/01/15 08:54:48;;;;;;;6.57;1.65;;;8.50;48.30;;;;;;5074351;28;20176;-51
2022/01/15 08:57:13;;;;;;;5.68;2.08;;;8.50;48.20;;;;;;5075446;28;20177;-51
2022/01/15 08:59:39;;;;;;;7.53;2.30;;;8.60;48.20;;;;;;5075548;28;20167;-51
2022/01/15 09:02:05;;;;;;;5.27;2.00;;;8.70;48.00;;;;;;5075362;28;20165;-50
2022/01/15 09:04:31;;;;;;;2.53;1.60;;;8.70;47.90;;;;;;5075414;28;20446;-51
2022/01/15 09:06:57;;;;;;;2.90;1.67;;;8.80;47.80;;;;;;5075383;28;20260;-51
2022/01/15 09:09:22;;;;;;;3.93;1.87;;;8.80;47.80;;;;;;5075587;28;20417;-51
2022/01/15 09:11:48;;;;;;;3.63;1.77;;;8.90;47.80;;;;;;5075652;28;20170;-50
2022/01/15 09:14:14;;;;;;;4.43;1.33;;;9.00;47.40;;;;;;5074253;28;20213;-51
2022/01/15 09:16:40;;;;;;;2.10;1.43;;;9.00;47.10;;;;;;5072922;28;20174;-50
2022/01/15 09:19:06;;;;;;;3.17;2.50;;;9.10;47.20;;;;;;5074863;28;20306;-51
2022/01/15 09:21:32;;;;;;;3.45;1.50;;;9.10;46.90;;;;;;5075079;28;20242;-51
2022/01/15 09:23:58;;;;;;;7.40;1.97;;;9.10;47.00;;;;;;5075165;28;20657;-51
2022/01/15 09:26:46;;;;;;;4.10;2.00;;;9.20;46.90;;;;;;5075265;28;20436;-51
2022/01/15 09:31:58;;;;;;;3.45;1.23;;;9.10;45.80;;;;;;5075212;28;20201;-51
2022/01/15 09:34:25;;;;;;;2.28;1.23;;;9.00;46.40;;;;;;5073863;28;20189;-51
2022/01/15 09:36:50;;;;;;;9.25;2.05;;;9.10;46.40;;;;;;5074741;28;20194;-51
2022/01/15 09:39:18;;;;;;;2.50;1.57;;;9.10;46.80;;;;;;5074956;28;20633;-51
2022/01/15 09:41:47;;;;;;;2.15;1.00;;;9.10;46.50;;;;;;5074692;28;20181;-51
2022/01/15 09:44:17;;;;;;;4.10;2.15;;;9.20;45.70;;;;;;5074574;28;20207;-51
2022/01/15 09:46:44;;;;;;;7.10;2.08;;;9.10;46.00;;;;;;5074505;28;20167;-51
2022/01/15 09:49:10;;;;;;;2.35;1.25;;;9.20;46.30;;;;;;5074554;28;20175;-51
2022/01/15 09:51:36;;;;;;;2.22;1.38;;;9.20;46.30;;;;;;5074527;28;20172;-51
2022/01/15 09:54:02;;;;;;;2.83;1.50;;;9.30;45.80;;;;;;5074590;28;20189;-51
2022/01/15 09:56:28;;;;;;;4.17;1.00;;;9.30;45.10;;;;;;5074340;28;20418;-51
2022/01/15 09:58:56;;;;;;;2.67;1.37;;;9.30;45.50;;;;;;5074293;28;20404;-50
2022/01/15 10:01:21;;;;;;;4.32;1.15;;;9.40;44.80;;;;;;5074144;28;20660;-51
2022/01/15 10:03:47;;;;;;;2.03;0.87;;;9.40;45.20;;;;;;5074162;28;20206;-51
2022/01/15 10:06:13;;;;;;;2.20;1.80;;;9.40;44.80;;;;;;5074240;28;20233;-50
2022/01/15 10:08:38;;;;;;;2.50;1.23;;;9.40;44.40;;;;;;5074159;28;20252;-51
2022/01/15 10:11:11;;;;;;;4.23;2.60;;;9.40;44.30;;;;;;5074083;28;20173;-50
2022/01/15 10:13:44;;;;;;;2.33;1.30;;;9.30;44.10;;;;;;5074076;28;20156;-50
2022/01/15 10:16:21;;;;;;;1.20;0.40;;;9.40;44.50;;;;;;5074143;28;20179;-51
2022/01/15 10:18:47;;;;;;;3.33;2.17;;;9.40;43.20;;;;;;5073763;28;20319;-52
2022/01/15 10:21:13;;;;;;;1.77;0.93;;;9.40;43.60;;;;;;5073890;28;20675;-50
2022/01/15 10:23:46;;;;;;;2.70;1.13;;;9.40;43.80;;;;;;5072491;28;20294;-51
2022/01/15 10:26:13;;;;;;;2.63;1.15;;;9.50;44.00;;;;;;5072771;28;20176;-50
2022/01/15 10:28:54;;;;;;;1.73;0.82;;;9.50;43.20;;;;;;5072278;28;20265;-50
2022/01/15 10:31:23;;;;;;;1.60;0.80;;;9.60;43.10;;;;;;5073940;28;20154;-51
2022/01/15 10:33:49;;;;;;;2.75;0.93;;;9.50;43.10;;;;;;5073966;28;20685;-50
2022/01/15 10:36:33;;;;;;;9.38;1.20;;;9.50;42.30;;;;;;5073720;28;20663;-51
2022/01/15 10:39:17;;;;;;;2.95;0.90;;;9.50;41.80;;;;;;5074013;28;20545;-51
2022/01/15 10:41:43;;;;;;;2.58;1.17;;;9.50;41.00;;;;;;5073631;28;20165;-50
2022/01/15 10:44:37;;;;;;;1.50;0.60;;;9.50;40.20;;;;;;5073598;28;20203;-50
2022/01/15 10:47:08;;;;;;;1.45;0.50;;;9.50;41.30;;;;;;5072306;28;20229;-50
2022/01/15 10:49:36;;;;;;;6.50;1.20;;;9.40;40.50;;;;;;5073609;28;20493;-50
2022/01/15 10:52:09;;;;;;;5.53;1.00;;;9.40;40.70;;;;;;5073739;28;20230;-51
2022/01/15 10:54:52;;;;;;;1.08;0.45;;;9.50;41.00;;;;;;5073526;28;20276;-51
2022/01/15 10:57:25;;;;;;;4.78;1.42;;;9.50;40.60;;;;;;5073438;28;20169;-51
2022/01/15 10:59:57;;;;;;;0.98;0.28;;;9.60;39.10;;;;;;5073758;28;20172;-50
2022/01/15 11:02:23;;;;;;;1.30;0.80;;;9.40;38.80;;;;;;5073331;28;20701;-51
2022/01/15 11:04:49;;;;;;;3.70;1.23;;;9.20;40.10;;;;;;5073368;28;20168;-50
2022/01/15 11:07:17;;;;;;;2.80;0.90;;;9.30;39.20;;;;;;5073426;28;20184;-50
2022/01/15 11:09:44;;;;;;;3.33;0.82;;;9.30;40.60;;;;;;5073490;28;20410;-50
2022/01/15 11:12:11;;;;;;;1.00;0.30;;;9.40;39.70;;;;;;5073377;28;20639;-50
2022/01/15 11:14:37;;;;;;;1.40;0.90;;;9.30;39.80;;;;;;5073327;28;20703;-50
2022/01/15 11:17:04;;;;;;;1.20;0.70;;;9.40;40.50;;;;;;5071941;28;20539;-51
2022/01/15 11:19:30;;;;;;;6.63;0.70;;;9.40;39.80;;;;;;5071671;28;20580;-50
2022/01/15 11:21:57;;;;;;;2.00;0.65;;;9.50;39.70;;;;;;5072193;28;20185;-51
2022/01/15 11:24:23;;;;;;;2.25;1.10;;;9.40;39.30;;;;;;5073261;28;20187;-50
2022/01/15 11:26:57;;;;;;;3.00;0.53;;;9.40;39.40;;;;;;5073399;28;20658;-51
2022/01/15 11:29:23;;;;;;;1.30;0.60;;;9.40;39.70;;;;;;5073269;28;20565;-50
2022/01/15 11:31:56;;;;;;;4.65;0.98;;;9.50;39.90;;;;;;5073255;28;20716;-51
2022/01/15 11:34:23;;;;;;;4.53;1.50;;;9.50;39.70;;;;;;5073474;28;20224;-51
2022/01/15 11:36:49;;;;;;;1.10;0.50;;;9.60;39.60;;;;;;5073195;28;20533;-51
2022/01/15 11:39:20;;;;;;;3.17;0.55;;;9.60;39.70;;;;;;5073699;28;20171;-50
2022/01/15 11:41:49;;;;;;;3.33;0.60;;;9.60;39.20;;;;;;5077256;28;20164;-51
2022/01/15 11:44:37;;;;;;;5.85;0.93;;;9.60;39.00;;;;;;5076999;28;20295;-50
2022/01/15 11:47:20;;;;;;;2.58;1.25;;;9.60;38.70;;;;;;5076950;28;20160;-51
2022/01/15 11:49:49;;;;;;;2.25;0.77;;;9.60;39.00;;;;;;5077160;28;20248;-51
2022/01/15 11:52:14;;;;;;;4.63;0.55;;;9.60;37.80;;;;;;5076696;28;20180;-50
2022/01/15 11:54:49;;;;;;;1.20;0.50;;;9.60;38.90;;;;;;5076719;28;20173;-50
2022/01/15 11:57:29;;;;;;;1.55;0.88;;;9.60;38.00;;;;;;5076858;28;20174;-50
2022/01/15 12:00:16;;;;;;;1.20;0.50;;;9.60;38.90;;;;;;5076736;28;20165;-50
2022/01/15 12:02:55;;;;;;;1.50;0.60;;;9.50;38.60;;;;;;5075187;28;20215;-50
2022/01/15 12:05:23;;;;;;;1.20;0.50;;;9.60;38.40;;;;;;5076715;28;20160;-51
2022/01/15 12:08:01;;;;;;;1.85;0.95;;;9.60;38.90;;;;;;5075185;28;20172;-50
2022/01/15 12:10:47;;;;;;;1.20;0.68;;;9.70;39.00;;;;;;5076434;28;20167;-51
2022/01/15 12:13:21;;;;;;;5.63;1.00;;;9.70;38.90;;;;;;5076575;28;20176;-50
2022/01/15 12:15:48;;;;;;;1.40;0.57;;;9.70;38.20;;;;;;5076672;28;20195;-51
2022/01/15 12:18:15;;;;;;;3.50;0.70;;;9.80;38.50;;;;;;5076279;28;20167;-51
2022/01/15 12:20:41;;;;;;;3.42;1.10;;;9.70;37.70;;;;;;5076234;28;20455;-50
2022/01/15 12:23:19;;;;;;;2.55;0.70;;;9.70;38.20;;;;;;5076178;28;20198;-50
2022/01/15 12:25:50;;;;;;;1.85;0.73;;;9.70;38.40;;;;;;5076120;28;20254;-50
2022/01/15 12:28:17;;;;;;;3.42;0.93;;;9.70;38.10;;;;;;5076327;28;20175;-50
2022/01/15 12:30:50;;;;;;;5.28;1.45;;;9.70;37.60;;;;;;5076053;28;20165;-50
2022/01/15 12:33:17;;;;;;;1.33;0.90;;;9.70;37.70;;;;;;5076294;28;20167;-50
2022/01/15 12:35:47;;;;;;;1.73;0.60;;;9.70;37.70;;;;;;5076323;28;20662;-50
2022/01/15 12:38:30;;;;;;;2.05;1.42;;;9.70;37.90;;;;;;5075866;28;20181;-51
2022/01/15 12:41:04;;;;;;;1.52;0.55;;;9.70;37.90;;;;;;5076066;28;20156;-51
2022/01/15 12:43:34;;;;;;;3.45;0.68;;;9.70;36.10;;;;;;5075761;28;20554;-50
2022/01/15 12:46:10;;;;;;;1.40;0.90;;;9.60;36.70;;;;;;5057803;28;20221;-50
2022/01/15 12:48:41;;;;;;;1.80;0.80;;;9.50;36.80;;;;;;5075832;28;20516;-51
2022/01/15 12:51:10;;;;;;;1.50;0.85;;;9.50;36.50;;;;;;5075774;28;20157;-50
2022/01/15 12:53:40;;;;;;;4.45;1.33;;;9.40;37.70;;;;;;5075561;28;20159;-51
2022/01/15 12:56:14;;;;;;;5.15;1.20;;;9.50;37.60;;;;;;5074341;28;20172;-51
2022/01/15 12:58:41;;;;;;;3.85;1.17;;;9.50;37.70;;;;;;5074308;28;20305;-50
2022/01/15 13:01:08;;;;;;;2.72;1.00;;;9.50;37.50;;;;;;5075642;28;20168;-50
2022/01/15 13:03:38;;;;;;;7.72;1.35;;;9.50;37.40;;;;;;5075362;28;20718;-51
2022/01/15 13:06:05;;;;;;;4.13;1.73;;;9.50;37.50;;;;;;5075538;28;20184;-50
2022/01/15 13:08:43;;;;;;;2.67;1.27;;;9.50;37.00;;;;;;5074006;28;20260;-50
2022/01/15 13:13:44;;;;;;;5.90;0.80;;;9.60;38.00;;;;;;5075634;28;20161;-50
2022/01/15 13:16:14;;;;;;;2.33;0.93;;;9.70;37.90;;;;;;5075321;28;20619;-50
2022/01/15 13:18:43;;;;;;;2.50;0.63;;;9.70;38.10;;;;;;5075087;28;20225;-51
2022/01/15 13:21:19;;;;;;;2.22;1.23;;;9.80;37.10;;;;;;5075191;28;20263;-50
2022/01/15 13:23:49;;;;;;;2.65;0.95;;;9.70;36.50;;;;;;5075012;28;20187;-50
2022/01/15 13:26:20;;;;;;;2.03;0.77;;;9.60;36.40;;;;;;5074985;28;20172;-50